Time;durP1;ratioP1;P1;durP2;ratioP2;P2;SDS_P1;SDS_P2;PMS_P1;PMS_P2;Temp;Humidity;BMP_temperature;BMP_pressure;BME280_temperature;BME280_humidity;BME280_pressure;Samples;Min_cycle;Max_cycle;Signal;HPM_P1;HPM_P2
2022/07/31 00:01:36;;;;;;;6.32;2.13;;;;;;;21.05;41.72;100132.84;10332159;28;20464;-76
2022/07/31 00:06:40;;;;;;;4.93;2.08;;;;;;;21.07;41.69;100132.69;10349619;28;20521;-77
2022/07/31 00:11:42;;;;;;;3.55;2.10;;;;;;;20.98;41.48;100134.47;10333099;28;20077;-77
2022/07/31 00:16:44;;;;;;;3.85;2.17;;;;;;;20.93;41.85;100127.91;10332697;28;20050;-77
2022/07/31 00:21:45;;;;;;;5.45;1.92;;;;;;;20.94;42.10;100126.94;10333869;28;20133;-78
2022/07/31 00:26:47;;;;;;;5.38;2.42;;;;;;;20.65;43.20;100128.97;10330804;28;20073;-77
2022/07/31 00:31:53;;;;;;;4.00;2.10;;;;;;;20.02;43.96;100130.72;10331829;28;20776;-77
2022/07/31 00:36:55;;;;;;;5.35;2.22;;;;;;;20.03;44.40;100125.25;10333440;28;21008;-77
2022/07/31 00:41:56;;;;;;;4.65;2.17;;;;;;;20.15;44.43;100121.44;10327630;28;20082;-77
2022/07/31 00:46:58;;;;;;;4.05;2.20;;;;;;;20.17;44.75;100123.97;10333567;28;20123;-77
2022/07/31 00:52:02;;;;;;;5.32;2.33;;;;;;;20.11;45.31;100114.75;10332321;28;20077;-77
2022/07/31 00:57:05;;;;;;;4.15;2.30;;;;;;;20.03;45.67;100097.91;10331607;28;20602;-77
2022/07/31 01:02:07;;;;;;;4.82;2.20;;;;;;;20.02;45.49;100096.22;10343397;28;20058;-77
2022/07/31 01:07:09;;;;;;;4.13;2.40;;;;;;;19.99;45.48;100107.16;10331949;28;20078;-77
2022/07/31 01:12:24;;;;;;;4.50;2.30;;;;;;;19.92;46.04;100106.06;10330383;28;20050;-77
2022/07/31 01:17:29;;;;;;;5.00;2.63;;;;;;;20.00;46.02;100106.16;10330487;28;20050;-77
2022/07/31 01:22:57;;;;;;;7.47;2.30;;;;;;;19.89;46.07;100108.97;10329768;28;20113;-77
2022/07/31 01:28:14;;;;;;;6.85;2.10;;;;;;;19.91;46.01;100096.44;10352239;28;20056;-77
2022/07/31 01:33:57;;;;;;;6.03;2.30;;;;;;;19.76;46.39;100108.47;10336395;28;20107;-77
2022/07/31 01:39:00;;;;;;;6.35;2.40;;;;;;;19.71;46.12;100094.78;10359484;28;20066;-76
2022/07/31 01:44:05;;;;;;;4.32;2.17;;;;;;;19.29;46.79;100092.56;10339172;28;20054;-77
2022/07/31 01:49:09;;;;;;;4.60;2.47;;;;;;;18.93;47.56;100081.84;10354048;28;20098;-77
2022/07/31 01:54:13;;;;;;;6.20;2.50;;;;;;;18.95;47.42;100087.84;10339994;28;20116;-77
2022/07/31 01:59:18;;;;;;;5.00;2.20;;;;;;;19.00;47.83;100088.22;10353386;28;20043;-77
2022/07/31 02:04:24;;;;;;;4.68;2.30;;;;;;;18.98;48.09;100085.72;10341265;28;20068;-77
2022/07/31 02:09:27;;;;;;;4.45;2.45;;;;;;;18.95;48.00;100080.69;10345837;28;21110;-77
2022/07/31 02:14:30;;;;;;;7.45;2.83;;;;;;;18.88;48.18;100084.06;10344062;28;20078;-77
2022/07/31 02:19:35;;;;;;;6.28;2.65;;;;;;;18.72;48.94;100089.09;10343700;28;20174;-77
2022/07/31 02:24:37;;;;;;;8.38;2.60;;;;;;;18.29;49.59;100097.41;10353341;28;20054;-77
2022/07/31 02:29:41;;;;;;;4.80;2.75;;;;;;;17.87;50.63;100090.59;10341806;28;20057;-77
2022/07/31 02:34:44;;;;;;;4.68;2.63;;;;;;;17.87;50.75;100087.94;10357292;28;20050;-77
2022/07/31 02:39:46;;;;;;;7.30;2.80;;;;;;;18.02;50.35;100078.63;10358237;28;20590;-77
2022/07/31 02:44:49;;;;;;;5.75;2.92;;;;;;;18.07;50.39;100082.56;10341322;28;20136;-77
2022/07/31 02:49:53;;;;;;;5.78;2.80;;;;;;;17.99;50.64;100084.22;10343878;28;20566;-77
2022/07/31 02:54:56;;;;;;;8.55;2.60;;;;;;;18.03;50.83;100093.56;10340028;28;20093;-77
2022/07/31 02:59:58;;;;;;;4.65;2.60;;;;;;;18.04;50.80;100087.28;10357786;28;20050;-77
2022/07/31 03:05:00;;;;;;;5.40;2.70;;;;;;;17.64;51.19;100079.34;10338592;28;20549;-77
2022/07/31 03:10:02;;;;;;;4.47;2.60;;;;;;;17.70;51.50;100073.53;10328760;28;20148;-77
2022/07/31 03:15:08;;;;;;;6.80;2.72;;;;;;;17.83;51.46;100079.44;10348126;28;20081;-77
2022/07/31 03:20:12;;;;;;;5.50;3.08;;;;;;;17.83;51.24;100082.09;10349441;28;20054;-77
2022/07/31 03:25:15;;;;;;;4.72;2.90;;;;;;;17.88;51.31;100079.84;10336504;28;20057;-77
2022/07/31 03:30:25;;;;;;;4.95;3.10;;;;;;;17.58;51.83;100074.59;10334161;28;20111;-77
2022/07/31 03:35:28;;;;;;;6.82;3.13;;;;;;;17.08;52.94;100080.69;10332870;28;20077;-77
2022/07/31 03:40:30;;;;;;;5.90;3.08;;;;;;;17.09;53.18;100077.06;10332221;28;20058;-76
2022/07/31 03:45:33;;;;;;;4.35;2.88;;;;;;;17.24;53.07;100081.06;10330457;28;20104;-77
2022/07/31 03:50:36;;;;;;;4.57;2.70;;;;;;;17.53;52.49;100079.44;10333975;28;20062;-76
2022/07/31 03:55:41;;;;;;;4.50;2.67;;;;;;;17.61;52.28;100079.59;10330815;28;20534;-76
2022/07/31 04:00:44;;;;;;;5.63;2.83;;;;;;;17.84;51.66;100078.44;10342167;28;20503;-76
2022/07/31 04:05:45;;;;;;;4.72;2.90;;;;;;;17.88;51.67;100087.78;10347692;28;20491;-76
2022/07/31 04:10:47;;;;;;;6.30;2.75;;;;;;;17.84;51.46;100084.59;10343828;28;20054;-77
2022/07/31 04:15:49;;;;;;;7.05;2.92;;;;;;;17.73;51.81;100082.03;10333625;28;20279;-76
2022/07/31 04:20:51;;;;;;;5.60;3.25;;;;;;;17.85;51.40;100088.06;10333640;28;20058;-76
2022/07/31 04:25:53;;;;;;;4.40;2.75;;;;;;;18.06;51.13;100096.75;10334118;28;20591;-76
2022/07/31 04:31:29;;;;;;;5.03;2.78;;;;;;;18.09;51.49;100090.38;10331345;28;20419;-76
2022/07/31 04:36:30;;;;;;;4.28;2.50;;;;;;;18.35;50.72;100092.41;10350411;28;20073;-76
2022/07/31 04:41:32;;;;;;;5.97;2.40;;;;;;;18.86;49.54;100092.16;10331749;28;20512;-76
2022/07/31 04:46:34;;;;;;;6.95;2.40;;;;;;;18.84;49.59;100094.13;10329484;28;20090;-77
2022/07/31 04:51:35;;;;;;;4.30;2.50;;;;;;;18.65;49.83;100087.00;10332965;28;20057;-77
2022/07/31 04:56:43;;;;;;;5.85;2.85;;;;;;;18.32;50.46;100084.72;10331069;28;20054;-77
2022/07/31 05:01:46;;;;;;;7.38;2.60;;;;;;;18.27;50.60;100088.75;10330810;28;20061;-77
2022/07/31 05:06:51;;;;;;;4.45;2.70;;;;;;;18.47;50.82;100088.66;10333392;28;20141;-77
2022/07/31 05:11:53;;;;;;;5.30;2.90;;;;;;;18.59;50.61;100084.91;10330418;28;20046;-76
2022/07/31 05:16:54;;;;;;;6.22;2.92;;;;;;;18.74;50.07;100090.63;10331332;28;20082;-77
2022/07/31 05:21:58;;;;;;;6.00;3.25;;;;;;;18.81;50.11;100088.25;10330719;28;20061;-77
2022/07/31 05:27:03;;;;;;;6.28;3.08;;;;;;;18.65;50.37;100078.19;10329832;28;21099;-77
2022/07/31 05:32:05;;;;;;;6.85;3.33;;;;;;;18.65;50.30;100086.16;10331497;28;20927;-76
2022/07/31 05:37:07;;;;;;;9.75;4.35;;;;;;;18.59;50.19;100078.75;10331266;28;20113;-77
2022/07/31 05:42:09;;;;;;;4.93;2.97;;;;;;;18.59;49.66;100078.75;10330528;28;20054;-77
2022/07/31 05:47:11;;;;;;;8.48;3.30;;;;;;;18.72;49.69;100083.78;10331308;28;20057;-77
2022/07/31 05:52:13;;;;;;;9.35;3.22;;;;;;;18.78;49.61;100078.78;10323367;28;20054;-77
2022/07/31 05:57:14;;;;;;;6.25;3.30;;;;;;;18.86;49.20;100073.59;10348724;28;20065;-81
2022/07/31 06:02:34;;;;;;;6.40;3.22;;;;;;;19.01;49.12;100074.81;10326077;28;20220;-79
2022/07/31 06:07:36;;;;;;;6.68;3.40;;;;;;;19.06;48.86;100072.63;10331837;28;20054;-79
2022/07/31 06:12:38;;;;;;;8.20;3.40;;;;;;;19.07;49.00;100066.38;10330562;28;20510;-79
2022/07/31 06:17:41;;;;;;;6.65;3.42;;;;;;;19.33;48.76;100079.84;10352640;28;20054;-79
2022/07/31 06:22:45;;;;;;;9.23;3.25;;;;;;;19.64;48.21;100077.78;10350201;28;20500;-79
2022/07/31 06:27:47;;;;;;;5.55;3.20;;;;;;;19.95;47.57;100076.56;10337931;28;20090;-78
2022/07/31 06:33:00;;;;;;;7.40;3.63;;;;;;;20.20;47.29;100065.22;10339132;28;20054;-79
2022/07/31 06:38:09;;;;;;;10.57;3.70;;;;;;;20.43;46.95;100061.16;10334002;28;20152;-78
2022/07/31 06:43:12;;;;;;;6.22;3.60;;;;;;;20.55;46.27;100065.25;10337118;28;20058;-79
2022/07/31 06:48:13;;;;;;;6.13;3.55;;;;;;;20.23;47.11;100065.75;10332687;28;20492;-78
2022/07/31 06:53:15;;;;;;;9.30;3.40;;;;;;;20.36;46.64;100060.06;10334150;28;20101;-78
2022/07/31 06:58:17;;;;;;;6.35;3.40;;;;;;;20.93;45.65;100062.28;10340407;28;20143;-78
2022/07/31 07:03:19;;;;;;;6.60;3.88;;;;;;;20.83;45.36;100056.22;10334468;28;20097;-78
2022/07/31 07:08:20;;;;;;;6.65;3.10;;;;;;;21.11;44.97;100051.59;10336537;28;20050;-78
2022/07/31 07:13:22;;;;;;;5.13;3.38;;;;;;;21.51;44.71;100054.56;10335747;28;20045;-78
2022/07/31 07:18:44;;;;;;;5.35;3.13;;;;;;;22.03;43.12;100055.31;10333492;28;20082;-79
2022/07/31 07:23:46;;;;;;;9.05;3.40;;;;;;;22.12;42.67;100042.84;10331730;28;20046;-80
2022/07/31 07:28:48;;;;;;;6.35;3.20;;;;;;;22.66;41.70;100037.78;10323694;28;20383;-80
2022/07/31 07:33:50;;;;;;;5.32;3.20;;;;;;;23.14;40.93;100028.94;10333501;28;20100;-80
2022/07/31 07:38:53;;;;;;;6.85;2.90;;;;;;;23.69;40.08;100028.97;10336130;28;20408;-80
2022/07/31 07:43:56;;;;;;;7.95;3.40;;;;;;;23.86;39.32;100019.88;10332984;28;20053;-80
2022/07/31 07:48:58;;;;;;;5.95;3.20;;;;;;;24.90;37.70;100004.16;10332321;28;20050;-80
2022/07/31 07:54:00;;;;;;;4.90;2.63;;;;;;;25.54;35.72;100008.84;10329320;28;20061;-80
2022/07/31 07:59:02;;;;;;;4.60;2.80;;;;;;;25.04;36.43;99995.31;10328194;28;20057;-80
2022/07/31 08:04:05;;;;;;;5.18;2.35;;;;;;;24.63;36.53;100000.22;10335329;28;20141;-80
2022/07/31 08:09:06;;;;;;;6.18;2.88;;;;;;;24.40;37.35;99994.03;10332368;28;20365;-80
2022/07/31 08:14:09;;;;;;;4.93;2.40;;;;;;;24.28;37.27;99995.47;10329961;28;20058;-80
2022/07/31 08:19:15;;;;;;;4.97;2.40;;;;;;;24.85;36.45;99990.50;10343422;28;20061;-80
2022/07/31 08:24:17;;;;;;;7.40;2.70;;;;;;;24.87;36.64;99996.50;10329948;28;20844;-80
2022/07/31 08:29:19;;;;;;;6.07;2.53;;;;;;;24.78;36.21;99994.91;10329981;28;20050;-80
2022/07/31 08:34:29;;;;;;;5.57;2.60;;;;;;;24.90;36.49;99993.44;10343622;28;20061;-80
2022/07/31 08:39:33;;;;;;;7.72;2.55;;;;;;;24.93;36.35;99985.91;10335315;28;20046;-81
2022/07/31 08:44:36;;;;;;;7.68;3.05;;;;;;;25.16;36.13;99979.66;10350176;28;20054;-82
2022/07/31 08:49:45;;;;;;;4.93;2.50;;;;;;;25.26;35.69;99977.53;10350099;28;20061;-81
2022/07/31 08:54:50;;;;;;;3.83;2.20;;;;;;;25.47;35.25;99967.75;10333478;28;20511;-81
2022/07/31 08:59:53;;;;;;;3.95;2.22;;;;;;;25.44;34.96;99961.94;10333039;28;20062;-81
2022/07/31 09:04:55;;;;;;;5.85;2.35;;;;;;;25.79;34.85;99956.63;10327038;28;20050;-80
2022/07/31 09:09:57;;;;;;;5.90;2.50;;;;;;;25.51;35.26;99960.19;10330622;28;20514;-79
2022/07/31 09:15:02;;;;;;;6.05;2.35;;;;;;;25.23;35.49;99954.63;10329190;28;20065;-80
2022/07/31 09:20:15;;;;;;;4.75;2.40;;;;;;;24.99;35.94;99954.91;10340559;28;20055;-80
2022/07/31 09:25:18;;;;;;;6.60;2.20;;;;;;;24.92;36.16;99948.63;10339814;28;20058;-80
2022/07/31 09:30:21;;;;;;;3.20;1.88;;;;;;;25.09;35.80;99942.94;10326708;28;20120;-79
2022/07/31 09:35:24;;;;;;;9.50;2.67;;;;;;;25.29;35.72;99932.47;10343489;28;20054;-79
2022/07/31 09:40:36;;;;;;;12.68;2.45;;;;;;;25.40;35.08;99936.56;10342358;28;20050;-79
2022/07/31 09:46:00;;;;;;;5.38;2.25;;;;;;;25.64;35.28;99926.38;10325803;28;20058;-80
2022/07/31 09:51:07;;;;;;;4.60;2.20;;;;;;;25.91;34.72;99932.84;10338624;28;20054;-80
2022/07/31 09:56:13;;;;;;;6.07;2.72;;;;;;;26.33;34.20;99930.19;10349812;28;20080;-80
2022/07/31 10:01:16;;;;;;;4.68;2.20;;;;;;;26.76;33.96;99920.25;10349371;28;20066;-80
2022/07/31 10:06:20;;;;;;;5.25;2.00;;;;;;;27.15;32.46;99915.19;10337651;28;20135;-79
2022/07/31 10:11:23;;;;;;;5.65;2.15;;;;;;;27.16;32.50;99914.13;10352516;28;20061;-80
2022/07/31 10:16:27;;;;;;;5.10;2.10;;;;;;;27.16;32.75;99915.97;10353698;28;20093;-79
2022/07/31 10:21:39;;;;;;;6.40;1.75;;;;;;;27.57;31.95;99915.94;10348540;28;20130;-80
2022/07/31 10:26:45;;;;;;;7.15;2.25;;;;;;;28.10;30.99;99915.09;10351012;28;20744;-80
2022/07/31 10:32:08;;;;;;;4.57;1.70;;;;;;;28.10;31.19;99907.03;10347135;28;20725;-81
2022/07/31 10:37:23;;;;;;;6.30;2.00;;;;;;;28.03;32.01;99898.13;10333046;28;20042;-80
2022/07/31 10:42:44;;;;;;;5.97;1.60;;;;;;;27.81;32.37;99885.91;10333430;28;20101;-80
2022/07/31 10:47:55;;;;;;;5.65;1.60;;;;;;;27.74;33.14;99885.88;10333489;28;20053;-80
2022/07/31 10:53:14;;;;;;;3.05;1.60;;;;;;;27.95;32.01;99880.31;10347074;28;20054;-81
2022/07/31 10:58:20;;;;;;;3.97;1.83;;;;;;;28.45;30.16;99878.94;10347575;28;20050;-81
2022/07/31 11:03:24;;;;;;;4.65;1.70;;;;;;;28.67;29.64;99872.28;10335352;28;20101;-81
2022/07/31 11:08:51;;;;;;;4.70;1.67;;;;;;;29.20;26.97;99864.09;10348071;28;20052;-81
2022/07/31 11:13:56;;;;;;;4.25;1.80;;;;;;;29.68;27.89;99855.38;10353338;28;20534;-81
2022/07/31 11:19:00;;;;;;;3.75;1.85;;;;;;;30.37;26.73;99833.72;10349830;28;20050;-80
2022/07/31 11:24:12;;;;;;;3.63;1.70;;;;;;;30.38;25.76;99824.56;10333948;28;20538;-81
2022/07/31 11:29:41;;;;;;;3.83;1.80;;;;;;;30.43;25.64;99822.03;10346897;28;20079;-80
2022/07/31 11:35:03;;;;;;;;;;;;;;;29.98;26.33;99814.34;10328885;28;20056;-80
2022/07/31 11:40:07;;;;;;;3.55;1.95;;;;;;;30.21;26.41;99810.00;10326527;28;20007;-81
2022/07/31 11:45:10;;;;;;;3.97;1.73;;;;;;;30.24;26.54;99801.47;10330481;28;20062;-81
2022/07/31 11:50:14;;;;;;;3.42;1.70;;;;;;;30.40;25.43;99803.59;10330489;28;20065;-81
2022/07/31 11:55:18;;;;;;;4.07;1.73;;;;;;;30.74;25.08;99801.41;10353310;28;20574;-80
2022/07/31 12:00:21;;;;;;;4.93;1.70;;;;;;;31.11;24.31;99781.44;10351347;28;20067;-80
2022/07/31 12:05:29;;;;;;;4.35;1.80;;;;;;;31.15;24.23;99775.34;10334108;28;20049;-81
2022/07/31 12:10:41;;;;;;;6.78;1.80;;;;;;;31.38;24.02;99777.31;10331349;28;20057;-80
2022/07/31 12:16:06;;;;;;;3.92;1.70;;;;;;;31.50;23.55;99789.00;10332009;28;20054;-80
2022/07/31 12:21:08;;;;;;;3.63;1.85;;;;;;;31.43;24.11;99780.97;10336133;28;20073;-80
2022/07/31 12:26:12;;;;;;;3.72;1.67;;;;;;;31.41;24.11;99779.56;10333454;28;20108;-80
2022/07/31 12:31:14;;;;;;;3.35;1.80;;;;;;;31.50;23.94;99780.09;10330105;28;20049;-80
2022/07/31 12:36:16;;;;;;;3.40;1.90;;;;;;;31.74;24.09;99763.66;10334146;28;20053;-81
2022/07/31 12:41:18;;;;;;;6.38;1.73;;;;;;;31.25;24.24;99766.72;10333121;28;20050;-81
2022/07/31 12:46:21;;;;;;;5.40;1.80;;;;;;;31.20;24.25;99758.44;10334151;28;20189;-80
2022/07/31 12:51:23;;;;;;;7.05;1.80;;;;;;;31.05;24.72;99760.72;10348447;28;20058;-81
2022/07/31 12:56:45;;;;;;;9.02;1.77;;;;;;;30.70;24.93;99757.00;10346365;28;20547;-80
2022/07/31 13:01:47;;;;;;;4.28;1.80;;;;;;;30.31;25.28;99763.63;10348535;28;20062;-80
2022/07/31 13:06:50;;;;;;;3.85;1.80;;;;;;;30.28;25.33;99772.16;10331935;28;20504;-80
2022/07/31 13:11:52;;;;;;;3.85;1.67;;;;;;;30.29;25.69;99755.75;10342474;28;20054;-80
2022/07/31 13:16:58;;;;;;;4.68;1.90;;;;;;;30.31;25.61;99756.38;10333202;28;20058;-80
2022/07/31 13:22:00;;;;;;;3.35;1.75;;;;;;;30.22;25.57;99754.16;10336474;28;20054;-79
2022/07/31 13:27:02;;;;;;;3.53;1.70;;;;;;;30.43;25.47;99748.34;10342055;28;20069;-80
2022/07/31 13:32:04;;;;;;;4.55;1.60;;;;;;;30.50;25.71;99741.00;10340095;28;20137;-79
2022/07/31 13:37:06;;;;;;;4.40;1.63;;;;;;;31.18;24.90;99736.25;10339110;28;20573;-80
2022/07/31 13:42:08;;;;;;;6.45;1.80;;;;;;;31.24;24.71;99744.25;10339743;28;20058;-81
2022/07/31 13:47:10;;;;;;;4.80;1.73;;;;;;;30.87;25.33;99728.31;10339286;28;20092;-81
2022/07/31 13:52:11;;;;;;;4.70;1.80;;;;;;;31.00;25.35;99715.50;10356390;28;20515;-81
2022/07/31 13:57:14;;;;;;;4.80;1.73;;;;;;;30.92;25.47;99717.66;10340100;28;20054;-80
2022/07/31 14:02:16;;;;;;;6.15;1.80;;;;;;;31.01;25.53;99711.75;10339944;28;20061;-81
2022/07/31 14:07:18;;;;;;;3.22;1.70;;;;;;;30.76;25.27;99702.09;10339874;28;20050;-81
2022/07/31 14:12:20;;;;;;;5.40;1.70;;;;;;;30.82;25.19;99696.63;10338515;28;20061;-81
2022/07/31 14:17:21;;;;;;;2.65;1.50;;;;;;;30.78;25.36;99695.41;10338130;28;20050;-80
2022/07/31 14:22:24;;;;;;;3.58;1.60;;;;;;;30.67;25.50;99698.88;10338329;28;20774;-80
2022/07/31 14:27:26;;;;;;;5.00;1.60;;;;;;;30.56;25.83;99694.22;10336828;28;20049;-80
2022/07/31 14:32:29;;;;;;;5.70;1.60;;;;;;;30.79;25.36;99693.53;10340658;28;20050;-80
2022/07/31 14:37:31;;;;;;;4.53;1.63;;;;;;;30.87;25.36;99690.50;10333523;28;20061;-81
2022/07/31 14:42:33;;;;;;;3.70;1.60;;;;;;;30.82;25.46;99688.50;10339706;28;20054;-81
2022/07/31 14:47:35;;;;;;;6.18;1.85;;;;;;;30.81;25.63;99691.41;10340550;28;20049;-80
2022/07/31 14:52:37;;;;;;;2.60;1.60;;;;;;;30.54;25.65;99678.25;10337520;28;20081;-80
2022/07/31 14:57:39;;;;;;;4.55;1.48;;;;;;;30.47;25.71;99688.34;10338842;28;20050;-80
2022/07/31 15:02:42;;;;;;;3.20;1.50;;;;;;;30.47;25.99;99676.72;10339013;28;20108;-80
2022/07/31 15:07:44;;;;;;;1.95;1.30;;;;;;;30.54;25.95;99675.56;10335732;28;20081;-80
2022/07/31 15:12:47;;;;;;;2.88;1.60;;;;;;;30.60;26.08;99681.91;10335002;28;20089;-80
2022/07/31 15:17:49;;;;;;;4.07;1.50;;;;;;;30.95;25.70;99679.38;10339354;28;20105;-81
2022/07/31 15:22:51;;;;;;;4.28;1.50;;;;;;;30.79;25.82;99678.16;10353012;28;20069;-81
2022/07/31 15:27:53;;;;;;;3.00;1.60;;;;;;;30.76;25.89;99675.09;10335713;28;20053;-80
2022/07/31 15:32:55;;;;;;;4.38;1.73;;;;;;;30.81;25.75;99662.53;10333628;28;20062;-81
2022/07/31 15:38:01;;;;;;;2.80;1.55;;;;;;;31.12;25.58;99656.94;10338944;28;20182;-81
2022/07/31 15:43:02;;;;;;;3.17;1.80;;;;;;;31.59;25.52;99665.16;10335958;28;20066;-81
2022/07/31 15:48:04;;;;;;;3.17;1.70;;;;;;;31.50;25.86;99666.56;10334430;28;20049;-80
2022/07/31 15:53:10;;;;;;;3.47;1.80;;;;;;;31.31;26.05;99668.50;10350656;28;20155;-80
2022/07/31 15:58:12;;;;;;;2.38;1.67;;;;;;;30.71;26.88;99672.25;10333541;28;20569;-80
2022/07/31 16:03:14;;;;;;;4.75;1.80;;;;;;;30.46;27.44;99670.47;10333940;28;20058;-80
2022/07/31 16:08:18;;;;;;;3.28;2.08;;;;;;;30.19;28.12;99669.09;10350289;28;20046;-80
2022/07/31 16:13:35;;;;;;;2.53;1.60;;;;;;;30.20;28.10;99667.22;10347280;28;20054;-80
2022/07/31 16:18:37;;;;;;;2.47;1.70;;;;;;;30.08;28.42;99672.56;10348911;28;20068;-79
2022/07/31 16:23:39;;;;;;;2.58;1.55;;;;;;;29.89;28.67;99662.75;10333610;28;20475;-80
2022/07/31 16:28:41;;;;;;;4.00;1.48;;;;;;;29.52;29.42;99656.47;10333981;28;20049;-81
2022/07/31 16:33:42;;;;;;;3.40;1.67;;;;;;;29.43;29.81;99659.66;10327440;28;20120;-81
2022/07/31 16:38:52;;;;;;;4.40;1.70;;;;;;;29.97;28.88;99643.63;10330244;28;20148;-81
2022/07/31 16:44:16;;;;;;;3.30;1.60;;;;;;;30.20;28.68;99649.19;10324950;28;20054;-80
2022/07/31 16:49:20;;;;;;;3.97;1.65;;;;;;;29.70;29.14;99642.22;10330897;28;20049;-79
2022/07/31 16:54:37;;;;;;;3.03;1.42;;;;;;;29.58;29.08;99644.78;10333401;28;20519;-79
2022/07/31 16:59:39;;;;;;;2.75;1.50;;;;;;;29.52;29.71;99650.25;10328197;28;20050;-79
2022/07/31 17:04:58;;;;;;;2.85;1.40;;;;;;;29.13;29.76;99645.97;10342117;28;20145;-79
2022/07/31 17:09:59;;;;;;;4.45;1.50;;;;;;;28.91;29.80;99655.44;10328779;28;20169;-79
2022/07/31 17:15:01;;;;;;;3.63;1.40;;;;;;;28.87;30.08;99646.97;10330629;28;20466;-79
2022/07/31 17:20:04;;;;;;;3.70;1.30;;;;;;;28.74;30.32;99644.34;10331331;28;20057;-79
2022/07/31 17:25:08;;;;;;;1.90;1.27;;;;;;;28.89;29.96;99650.25;10333657;28;20053;-79
2022/07/31 17:30:12;;;;;;;3.55;1.60;;;;;;;29.05;30.24;99655.13;10344266;28;20108;-79
2022/07/31 17:35:13;;;;;;;2.65;1.38;;;;;;;29.17;29.81;99654.44;10329784;28;20285;-79
2022/07/31 17:40:15;;;;;;;3.47;1.35;;;;;;;28.96;30.40;99661.81;10329537;28;20050;-80
2022/07/31 17:45:37;;;;;;;7.13;1.58;;;;;;;28.72;30.38;99659.88;10326621;28;20638;-79
2022/07/31 17:50:59;;;;;;;3.63;1.50;;;;;;;28.56;30.95;99668.44;10326586;28;20050;-80
2022/07/31 17:56:01;;;;;;;4.22;1.40;;;;;;;28.57;31.41;99667.38;10345304;28;20108;-79
2022/07/31 18:01:02;;;;;;;3.33;1.60;;;;;;;28.19;32.09;99680.75;10329937;28;20103;-79
2022/07/31 18:06:04;;;;;;;3.53;1.70;;;;;;;28.01;32.62;99687.81;10336058;28;20053;-80
2022/07/31 18:11:07;;;;;;;2.35;1.55;;;;;;;27.79;32.90;99695.25;10351143;28;20056;-79
2022/07/31 18:16:09;;;;;;;2.65;1.80;;;;;;;27.59;33.55;99698.97;10338696;28;20056;-79
2022/07/31 18:21:11;;;;;;;3.47;1.63;;;;;;;27.30;34.09;99705.56;10355704;28;20050;-80
2022/07/31 18:26:13;;;;;;;3.45;1.80;;;;;;;27.18;34.76;99705.31;10336038;28;20058;-78
2022/07/31 18:31:15;;;;;;;4.82;1.70;;;;;;;27.02;34.76;99707.53;10333909;28;20056;-77
2022/07/31 18:36:37;;;;;;;3.97;1.85;;;;;;;26.82;35.36;99707.47;10334076;28;20064;-78
2022/07/31 18:41:41;;;;;;;2.90;1.95;;;;;;;26.73;35.55;99716.72;10331973;28;20050;-78
2022/07/31 18:46:49;;;;;;;5.55;1.70;;;;;;;26.66;36.03;99716.72;10333680;28;20515;-78
2022/07/31 18:51:51;;;;;;;6.88;2.22;;;;;;;26.49;36.42;99712.69;10349410;28;20050;-78
2022/07/31 18:56:52;;;;;;;3.47;1.80;;;;;;;26.38;36.54;99715.94;10337690;28;20590;-78
2022/07/31 19:01:55;;;;;;;4.47;1.70;;;;;;;26.25;37.00;99712.34;10337307;28;20107;-78
2022/07/31 19:06:57;;;;;;;2.97;1.80;;;;;;;26.10;37.13;99711.63;10350786;28;20077;-79
2022/07/31 19:12:00;;;;;;;5.57;2.00;;;;;;;25.92;37.49;99715.59;10333839;28;20050;-78
2022/07/31 19:17:08;;;;;;;5.68;2.00;;;;;;;25.78;37.79;99721.88;10333527;28;20050;-78
2022/07/31 19:22:12;;;;;;;5.68;1.88;;;;;;;25.59;38.07;99724.41;10330906;28;20467;-78
2022/07/31 19:27:14;;;;;;;3.03;1.80;;;;;;;25.44;38.64;99727.16;10337167;28;20120;-78
2022/07/31 19:32:16;;;;;;;4.40;2.00;;;;;;;25.27;38.66;99725.72;10335032;28;20054;-78
2022/07/31 19:37:18;;;;;;;5.00;1.73;;;;;;;25.25;38.75;99735.78;10337494;28;20050;-78
2022/07/31 19:42:20;;;;;;;3.92;1.63;;;;;;;25.20;38.90;99740.03;10333989;28;20104;-77
2022/07/31 19:47:22;;;;;;;3.25;2.00;;;;;;;25.14;39.25;99746.16;10326448;28;20525;-77
2022/07/31 19:52:23;;;;;;;4.05;1.65;;;;;;;24.98;39.48;99758.75;10336097;28;20112;-78
2022/07/31 19:57:25;;;;;;;3.90;1.73;;;;;;;25.03;39.38;99753.66;10333030;28;21093;-77
2022/07/31 20:02:27;;;;;;;3.40;1.70;;;;;;;24.91;40.21;99760.53;10335475;28;20066;-77
2022/07/31 20:07:29;;;;;;;3.22;1.90;;;;;;;24.74;40.46;99767.09;10334185;28;20057;-78
2022/07/31 20:12:33;;;;;;;2.80;1.80;;;;;;;24.58;40.66;99767.25;10332969;28;20106;-78
2022/07/31 20:17:35;;;;;;;4.07;1.83;;;;;;;24.50;40.48;99769.19;10335594;28;20053;-78
2022/07/31 20:22:37;;;;;;;5.68;2.00;;;;;;;24.41;41.11;99765.78;10334234;28;20081;-78
2022/07/31 20:27:39;;;;;;;3.38;1.77;;;;;;;24.26;41.56;99768.47;10347052;28;20100;-78
2022/07/31 20:32:42;;;;;;;4.53;1.90;;;;;;;24.17;41.92;99777.56;10332869;28;20058;-78
2022/07/31 20:37:49;;;;;;;3.35;1.70;;;;;;;24.05;42.09;99776.31;10348006;28;20104;-78
2022/07/31 20:42:51;;;;;;;3.78;2.00;;;;;;;23.95;42.29;99778.41;10334569;28;20104;-77
2022/07/31 20:47:55;;;;;;;6.65;2.13;;;;;;;23.87;42.70;99783.81;10347479;28;20099;-77
2022/07/31 20:52:57;;;;;;;5.20;2.20;;;;;;;23.74;42.83;99788.94;10333391;28;20471;-77
2022/07/31 20:57:59;;;;;;;3.25;1.80;;;;;;;23.68;42.77;99783.47;10333986;28;20046;-78
2022/07/31 21:03:01;;;;;;;3.25;1.80;;;;;;;23.72;42.81;99795.44;10330994;28;20965;-78
2022/07/31 21:08:03;;;;;;;5.43;1.70;;;;;;;23.66;42.63;99796.16;10332769;28;20085;-78
2022/07/31 21:13:05;;;;;;;3.25;1.90;;;;;;;23.67;42.90;99798.69;10331641;28;20121;-77
2022/07/31 21:18:07;;;;;;;4.55;1.70;;;;;;;23.60;43.15;99795.06;10327581;28;20089;-77
2022/07/31 21:23:08;;;;;;;5.25;1.92;;;;;;;23.56;43.16;99799.09;10328825;28;20076;-77
2022/07/31 21:28:11;;;;;;;4.45;1.92;;;;;;;23.48;43.23;99793.81;10327421;28;20046;-77
2022/07/31 21:33:13;;;;;;;3.65;1.80;;;;;;;23.52;43.34;99803.13;10330584;28;20405;-76
2022/07/31 21:38:16;;;;;;;6.30;1.75;;;;;;;23.49;43.44;99801.63;10349120;28;20443;-77
2022/07/31 21:43:19;;;;;;;4.72;1.58;;;;;;;23.40;43.67;99799.16;10334707;28;20049;-77
2022/07/31 21:48:25;;;;;;;2.63;1.58;;;;;;;23.44;43.65;99805.84;10339354;28;20160;-77
2022/07/31 21:53:26;;;;;;;4.90;1.55;;;;;;;23.45;43.24;99805.66;10338159;28;20057;-77
2022/07/31 21:58:30;;;;;;;3.28;1.73;;;;;;;23.53;43.20;99810.13;10338496;28;20125;-77
2022/07/31 22:03:31;;;;;;;2.58;1.42;;;;;;;23.44;43.58;99814.69;10336976;28;20467;-77
2022/07/31 22:08:33;;;;;;;3.13;1.40;;;;;;;23.36;43.78;99819.22;10353932;28;20637;-77
2022/07/31 22:13:35;;;;;;;3.63;1.30;;;;;;;23.37;43.68;99826.22;10336647;28;20511;-77
2022/07/31 22:18:37;;;;;;;3.17;1.50;;;;;;;23.44;43.71;99829.88;10337767;28;20103;-77
2022/07/31 22:23:39;;;;;;;2.58;1.40;;;;;;;23.49;43.72;99827.50;10330251;28;20046;-77
2022/07/31 22:28:42;;;;;;;3.45;1.48;;;;;;;23.50;43.76;99842.50;10337148;28;20873;-77
2022/07/31 22:33:44;;;;;;;2.58;1.30;;;;;;;23.47;43.94;99840.22;10336378;28;20065;-77
2022/07/31 22:38:48;;;;;;;3.30;1.40;;;;;;;23.37;44.18;99843.03;10335241;28;20145;-76
2022/07/31 22:43:50;;;;;;;2.30;1.25;;;;;;;23.35;44.12;99842.38;10333491;28;20104;-77
2022/07/31 22:49:13;;;;;;;3.38;1.60;;;;;;;23.26;44.44;99845.28;10335697;28;20085;-76
2022/07/31 22:54:15;;;;;;;3.33;1.30;;;;;;;23.22;44.47;99847.47;10335932;28;20270;-76
2022/07/31 22:59:17;;;;;;;3.25;1.30;;;;;;;23.18;44.50;99859.50;10335935;28;20176;-77
2022/07/31 23:04:19;;;;;;;4.53;1.50;;;;;;;23.14;44.65;99857.34;10337481;28;20070;-77
2022/07/31 23:09:21;;;;;;;3.63;1.40;;;;;;;23.22;44.61;99862.66;10349403;28;20566;-77
2022/07/31 23:14:24;;;;;;;2.58;1.40;;;;;;;23.20;44.78;99880.66;10334714;28;20101;-76
2022/07/31 23:19:25;;;;;;;4.40;1.42;;;;;;;23.10;45.15;99874.72;10336224;28;20085;-77
2022/07/31 23:24:27;;;;;;;2.60;1.40;;;;;;;22.87;45.55;99871.97;10336930;28;20058;-77
2022/07/31 23:29:29;;;;;;;9.75;1.55;;;;;;;22.78;45.91;99882.84;10333899;28;20499;-77